Time;durP1;ratioP1;P1;durP2;ratioP2;P2;SDS_P1;SDS_P2;PMS_P1;PMS_P2;Temp;Humidity;BMP_temperature;BMP_pressure;BME280_temperature;BME280_humidity;BME280_pressure;Samples;Min_cycle;Max_cycle;Signal;HPM_P1;HPM_P2
2022/07/05 00:00:25;;;;;;;0.40;0.40;;;15.70;99.90;;;;;;5007047;28;20439;-68
2022/07/05 00:02:51;;;;;;;0.30;0.30;;;15.80;99.90;;;;;;5003518;28;20436;-68
2022/07/05 00:05:18;;;;;;;0.20;0.20;;;15.80;99.90;;;;;;5003449;28;20438;-67
2022/07/05 00:07:45;;;;;;;0.30;0.30;;;15.80;99.90;;;;;;5001722;28;20454;-68
2022/07/05 00:10:15;;;;;;;0.40;0.40;;;15.80;99.90;;;;;;5004131;28;20446;-67
2022/07/05 00:12:42;;;;;;;0.30;0.30;;;15.60;99.90;;;;;;5008226;28;20459;-68
2022/07/05 00:15:09;;;;;;;0.20;0.20;;;15.60;99.90;;;;;;5009826;28;20921;-68
2022/07/05 00:17:35;;;;;;;0.40;0.40;;;15.50;99.90;;;;;;5008346;28;20436;-68
2022/07/05 00:20:05;;;;;;;0.50;0.40;;;15.40;99.90;;;;;;5008994;28;20436;-67
2022/07/05 00:22:34;;;;;;;0.40;0.40;;;15.40;99.90;;;;;;5008509;28;20546;-67
2022/07/05 00:25:01;;;;;;;0.47;0.47;;;15.40;99.90;;;;;;5008039;28;20439;-68
2022/07/05 00:27:28;;;;;;;0.40;0.40;;;15.30;99.90;;;;;;5011504;28;20546;-67
2022/07/05 00:29:55;;;;;;;1.00;0.90;;;15.20;99.90;;;;;;5006852;28;20515;-68
2022/07/05 00:32:22;;;;;;;0.40;0.40;;;15.10;99.90;;;;;;5010587;28;20447;-68
2022/07/05 00:34:51;;;;;;;0.38;0.38;;;15.00;99.90;;;;;;5008521;28;20918;-68
2022/07/05 00:37:20;;;;;;;0.20;0.20;;;15.00;99.90;;;;;;5003501;28;20853;-68
2022/07/05 00:39:47;;;;;;;0.20;0.20;;;15.00;99.90;;;;;;5009425;28;20463;-68
2022/07/05 00:42:14;;;;;;;0.40;0.40;;;15.00;99.90;;;;;;5008902;28;20445;-68
2022/07/05 00:44:46;;;;;;;0.40;0.40;;;14.90;99.90;;;;;;5002791;28;20432;-68
2022/07/05 00:47:13;;;;;;;0.40;0.40;;;14.80;99.90;;;;;;5003304;28;20451;-68
2022/07/05 00:49:41;;;;;;;0.40;0.40;;;14.70;99.90;;;;;;5011108;28;20467;-67
2022/07/05 00:52:09;;;;;;;0.30;0.30;;;14.60;99.90;;;;;;5008796;28;20435;-68
2022/07/05 00:54:47;;;;;;;0.45;0.45;;;14.40;99.90;;;;;;5008420;28;20436;-68
2022/07/05 00:57:14;;;;;;;0.38;0.38;;;14.20;99.90;;;;;;5010022;28;20480;-68
2022/07/05 00:59:41;;;;;;;0.45;0.45;;;14.10;99.90;;;;;;4996224;28;20509;-67
2022/07/05 01:02:11;;;;;;;0.40;0.40;;;14.10;99.90;;;;;;4996604;28;20791;-68
2022/07/05 01:04:45;;;;;;;0.30;0.30;;;14.10;99.90;;;;;;4998460;28;20460;-68
2022/07/05 01:07:12;;;;;;;0.38;0.38;;;14.10;99.90;;;;;;5008686;28;21134;-68
2022/07/05 01:09:39;;;;;;;0.30;0.30;;;14.10;99.90;;;;;;5005000;28;20433;-68
2022/07/05 01:12:08;;;;;;;0.40;0.40;;;13.90;99.90;;;;;;5002282;28;20500;-67
2022/07/05 01:14:35;;;;;;;0.30;0.30;;;13.70;99.90;;;;;;4985289;28;21035;-68
2022/07/05 01:17:03;;;;;;;0.30;0.30;;;13.60;99.90;;;;;;5007995;28;20507;-68
2022/07/05 01:19:31;;;;;;;0.52;0.40;;;13.60;99.90;;;;;;5006531;28;21017;-67
2022/07/05 01:22:07;;;;;;;0.40;0.40;;;13.60;99.90;;;;;;5003450;28;20447;-68
2022/07/05 01:24:34;;;;;;;0.40;0.40;;;13.60;99.90;;;;;;5005892;28;20548;-67
2022/07/05 01:27:01;;;;;;;0.30;0.30;;;13.40;99.90;;;;;;5008995;28;20463;-68
2022/07/05 01:29:28;;;;;;;0.40;0.40;;;13.40;99.90;;;;;;5006048;28;20551;-67
2022/07/05 01:31:55;;;;;;;0.40;0.40;;;13.30;99.90;;;;;;5008717;28;20432;-67
2022/07/05 01:34:21;;;;;;;0.60;0.40;;;13.30;99.90;;;;;;5007184;28;20464;-67
2022/07/05 01:36:48;;;;;;;0.40;0.40;;;13.20;99.90;;;;;;5023457;28;20469;-66
2022/07/05 01:39:16;;;;;;;0.33;0.33;;;13.30;99.90;;;;;;5007525;28;20639;-66
2022/07/05 01:41:49;;;;;;;0.40;0.40;;;13.30;99.90;;;;;;5001342;28;20856;-67
2022/07/05 01:44:16;;;;;;;0.50;0.50;;;13.30;99.90;;;;;;5008624;28;20460;-67
2022/07/05 01:46:44;;;;;;;0.40;0.40;;;13.20;99.90;;;;;;5020159;28;20431;-67
2022/07/05 01:49:15;;;;;;;0.30;0.30;;;13.20;99.90;;;;;;5023984;28;20524;-67
2022/07/05 01:51:49;;;;;;;0.40;0.40;;;13.10;99.90;;;;;;5007840;28;20434;-67
2022/07/05 01:54:18;;;;;;;0.45;0.45;;;13.10;99.90;;;;;;5020372;28;20437;-67
2022/07/05 01:56:44;;;;;;;0.55;0.55;;;13.00;99.90;;;;;;5005918;28;20519;-67
2022/07/05 01:59:12;;;;;;;0.40;0.40;;;12.90;99.90;;;;;;4998745;28;20441;-67
2022/07/05 02:01:41;;;;;;;0.32;0.32;;;12.80;99.90;;;;;;5005347;28;20441;-67
2022/07/05 02:04:10;;;;;;;0.55;0.50;;;12.70;99.90;;;;;;5006180;28;20433;-67
2022/07/05 02:06:37;;;;;;;0.50;0.50;;;12.70;99.90;;;;;;5011017;28;20462;-67
2022/07/05 02:09:05;;;;;;;0.43;0.43;;;12.60;99.90;;;;;;5005407;28;20917;-67
2022/07/05 02:11:32;;;;;;;0.40;0.40;;;12.50;99.90;;;;;;4945146;28;1808813;-66
2022/07/05 02:14:01;;;;;;;0.40;0.40;;;12.50;99.90;;;;;;5002185;28;20440;-67
2022/07/05 02:16:29;;;;;;;0.57;0.57;;;12.50;99.90;;;;;;4998421;28;20432;-66
2022/07/05 02:18:56;;;;;;;0.60;0.60;;;12.50;99.90;;;;;;4998881;28;20436;-66
2022/07/05 02:21:23;;;;;;;0.30;0.30;;;12.50;99.90;;;;;;5003523;28;20909;-66
2022/07/05 02:23:50;;;;;;;0.40;0.40;;;12.40;99.90;;;;;;4994834;28;20464;-67
2022/07/05 02:26:17;;;;;;;1.10;0.47;;;12.40;99.90;;;;;;4995999;28;21617;-66
2022/07/05 02:28:44;;;;;;;0.50;0.50;;;12.30;99.90;;;;;;4996749;28;20434;-66
2022/07/05 02:31:11;;;;;;;0.33;0.33;;;12.30;99.90;;;;;;5003715;28;20435;-66
2022/07/05 02:33:38;;;;;;;0.40;0.40;;;12.30;99.90;;;;;;4998083;28;21013;-66
2022/07/05 02:36:10;;;;;;;0.50;0.50;;;12.30;99.90;;;;;;4992775;28;20437;-66
2022/07/05 02:38:37;;;;;;;0.37;0.30;;;12.30;99.90;;;;;;4994996;28;20445;-66
2022/07/05 02:41:08;;;;;;;0.50;0.50;;;12.40;99.90;;;;;;4999262;28;20444;-66
2022/07/05 02:43:35;;;;;;;0.40;0.40;;;12.40;99.90;;;;;;4999128;28;20441;-66
2022/07/05 02:46:02;;;;;;;0.40;0.40;;;12.40;99.90;;;;;;5021565;28;20435;-66
2022/07/05 02:48:37;;;;;;;0.43;0.43;;;12.40;99.90;;;;;;5014047;28;20451;-66
2022/07/05 02:51:05;;;;;;;0.40;0.40;;;12.30;99.90;;;;;;4999914;28;20463;-67
2022/07/05 02:53:34;;;;;;;0.63;0.63;;;12.40;99.90;;;;;;5003389;28;20438;-66
2022/07/05 02:56:02;;;;;;;0.40;0.40;;;12.30;99.90;;;;;;4991399;28;20533;-66
2022/07/05 02:58:29;;;;;;;0.50;0.50;;;12.20;99.90;;;;;;4993989;28;20457;-66
2022/07/05 03:00:56;;;;;;;0.30;0.30;;;12.10;99.90;;;;;;5012863;28;20550;-66
2022/07/05 03:03:23;;;;;;;0.97;0.50;;;12.10;99.90;;;;;;5004173;28;20943;-66
2022/07/05 03:05:50;;;;;;;0.40;0.40;;;12.00;99.90;;;;;;5007296;28;20434;-66
2022/07/05 03:08:17;;;;;;;0.50;0.50;;;12.00;99.90;;;;;;5005760;28;23039;-66
2022/07/05 03:10:44;;;;;;;0.50;0.50;;;12.10;99.90;;;;;;5008368;28;20512;-66
2022/07/05 03:13:11;;;;;;;0.40;0.40;;;12.10;99.90;;;;;;5016206;28;20431;-66
2022/07/05 03:15:38;;;;;;;0.50;0.50;;;12.20;99.90;;;;;;5005474;28;20760;-66
2022/07/05 03:18:04;;;;;;;0.30;0.30;;;12.20;99.90;;;;;;5028561;28;20439;-66
2022/07/05 03:20:31;;;;;;;0.40;0.40;;;12.10;99.90;;;;;;5016563;28;21115;-66
2022/07/05 03:22:58;;;;;;;0.45;0.45;;;12.10;99.90;;;;;;5010389;28;20432;-66
2022/07/05 03:25:25;;;;;;;0.57;0.57;;;12.00;99.90;;;;;;5008781;28;20506;-66
2022/07/05 03:27:52;;;;;;;0.40;0.40;;;12.10;99.90;;;;;;5003336;28;20439;-65
2022/07/05 03:30:19;;;;;;;0.40;0.40;;;12.00;99.90;;;;;;5012826;28;20431;-65
2022/07/05 03:32:46;;;;;;;0.40;0.40;;;12.10;99.90;;;;;;5009011;28;20465;-65
2022/07/05 03:35:15;;;;;;;0.43;0.43;;;12.10;99.90;;;;;;5007552;28;20432;-67
2022/07/05 03:37:41;;;;;;;0.40;0.40;;;12.10;99.90;;;;;;5004899;28;20439;-65
2022/07/05 03:40:08;;;;;;;0.50;0.50;;;12.20;99.90;;;;;;5000405;28;20433;-65
2022/07/05 03:42:37;;;;;;;0.40;0.40;;;12.20;99.90;;;;;;5007154;28;20444;-66
2022/07/05 03:45:05;;;;;;;0.40;0.40;;;12.30;99.90;;;;;;5005437;28;21099;-66
2022/07/05 03:47:31;;;;;;;0.33;0.33;;;12.30;99.90;;;;;;5012578;28;20436;-65
2022/07/05 03:49:58;;;;;;;0.70;0.70;;;12.30;99.90;;;;;;5009041;28;20428;-66
2022/07/05 03:52:25;;;;;;;0.60;0.60;;;12.40;99.90;;;;;;5020059;28;20526;-66
2022/07/05 03:54:52;;;;;;;0.55;0.55;;;12.40;99.90;;;;;;5002599;28;20436;-65
2022/07/05 03:57:20;;;;;;;0.40;0.40;;;12.40;99.90;;;;;;5004088;28;20540;-66
2022/07/05 03:59:47;;;;;;;0.40;0.40;;;12.50;99.90;;;;;;4998300;28;20434;-65
2022/07/05 04:02:14;;;;;;;0.50;0.50;;;12.60;99.90;;;;;;5002683;28;20437;-65
2022/07/05 04:04:40;;;;;;;0.40;0.40;;;12.70;99.90;;;;;;5007102;28;20918;-65
2022/07/05 04:07:07;;;;;;;0.50;0.50;;;12.80;99.90;;;;;;5003988;28;20450;-65
2022/07/05 04:09:34;;;;;;;0.40;0.40;;;12.80;99.90;;;;;;5014071;28;20558;-66
2022/07/05 04:12:04;;;;;;;0.47;0.47;;;12.80;99.90;;;;;;5001791;28;20430;-66
2022/07/05 04:14:33;;;;;;;0.43;0.43;;;12.90;99.90;;;;;;5005605;28;20436;-66
2022/07/05 04:17:02;;;;;;;0.43;0.43;;;13.00;99.90;;;;;;5010613;28;20433;-66
2022/07/05 04:19:30;;;;;;;0.50;0.50;;;13.10;99.90;;;;;;5002054;28;20425;-66
2022/07/05 04:21:57;;;;;;;0.40;0.40;;;13.30;99.90;;;;;;5006249;28;20430;-65
2022/07/05 04:24:23;;;;;;;0.55;0.55;;;13.40;99.90;;;;;;5010415;28;20428;-66
2022/07/05 04:26:50;;;;;;;0.38;0.38;;;13.40;99.90;;;;;;5001171;28;21167;-65
2022/07/05 04:29:17;;;;;;;0.40;0.40;;;13.50;99.90;;;;;;4997849;28;20449;-66
2022/07/05 04:31:43;;;;;;;0.45;0.45;;;13.70;99.90;;;;;;5005758;28;20946;-66
2022/07/05 04:34:10;;;;;;;0.40;0.40;;;13.80;99.90;;;;;;5005190;28;20436;-66
2022/07/05 04:36:40;;;;;;;0.40;0.40;;;14.00;99.90;;;;;;5003709;28;20476;-66
2022/07/05 04:39:09;;;;;;;0.50;0.50;;;14.10;99.90;;;;;;5000287;28;20432;-65
2022/07/05 04:41:39;;;;;;;0.75;0.60;;;14.30;99.90;;;;;;4998763;28;20957;-65
2022/07/05 04:44:05;;;;;;;0.40;0.40;;;14.50;99.90;;;;;;4982998;28;20438;-65
2022/07/05 04:46:32;;;;;;;0.30;0.30;;;14.70;99.90;;;;;;4999440;28;20563;-66
2022/07/05 04:48:59;;;;;;;0.50;0.50;;;15.40;99.90;;;;;;5008722;28;20434;-66
2022/07/05 04:51:26;;;;;;;0.50;0.50;;;16.30;99.90;;;;;;4995583;28;20432;-66
2022/07/05 04:53:53;;;;;;;0.40;0.40;;;17.20;99.90;;;;;;5005969;28;20921;-65
2022/07/05 04:56:19;;;;;;;0.43;0.43;;;18.20;99.90;;;;;;5007483;28;20432;-66
2022/07/05 04:58:46;;;;;;;0.40;0.40;;;19.10;99.90;;;;;;4986624;28;20440;-65
2022/07/05 05:01:13;;;;;;;0.40;0.40;;;19.80;99.90;;;;;;5003477;28;20437;-66
2022/07/05 05:03:43;;;;;;;0.40;0.40;;;20.50;99.90;;;;;;5006107;28;20475;-66
2022/07/05 05:06:14;;;;;;;0.30;0.30;;;21.10;99.90;;;;;;5011642;28;20521;-66
2022/07/05 05:08:41;;;;;;;0.40;0.40;;;21.90;99.90;;;;;;5012868;28;20444;-66
2022/07/05 05:11:10;;;;;;;0.30;0.30;;;22.60;99.90;;;;;;5006886;28;20432;-64
2022/07/05 05:13:37;;;;;;;0.32;0.32;;;23.20;99.90;;;;;;5006996;28;20809;-66
2022/07/05 05:16:11;;;;;;;0.40;0.40;;;23.40;99.90;;;;;;5016648;28;20436;-64
2022/07/05 05:18:44;;;;;;;0.40;0.40;;;23.50;99.90;;;;;;5017131;28;20434;-64
2022/07/05 05:21:11;;;;;;;0.22;0.22;;;23.60;99.90;;;;;;5013465;28;20559;-64
2022/07/05 05:23:38;;;;;;;0.30;0.30;;;23.80;99.90;;;;;;5022222;28;20430;-63
2022/07/05 05:26:05;;;;;;;0.30;0.30;;;23.90;99.90;;;;;;5008809;28;20452;-66
2022/07/05 05:28:31;;;;;;;0.25;0.25;;;23.90;99.90;;;;;;5008905;28;20464;-64
2022/07/05 05:30:58;;;;;;;0.30;0.30;;;23.80;99.90;;;;;;5023419;28;20442;-64
2022/07/05 05:33:25;;;;;;;0.20;0.20;;;24.10;99.90;;;;;;5017384;28;20471;-63
2022/07/05 05:35:53;;;;;;;0.43;0.40;;;24.80;99.90;;;;;;5002279;28;21041;-63
2022/07/05 05:38:20;;;;;;;0.40;0.40;;;25.40;99.90;;;;;;5013962;28;20433;-64
2022/07/05 05:40:47;;;;;;;0.30;0.30;;;25.80;99.90;;;;;;5008605;28;20428;-63
2022/07/05 05:43:14;;;;;;;0.50;0.40;;;25.90;98.60;;;;;;5009397;28;20417;-64
2022/07/05 05:45:43;;;;;;;0.50;0.40;;;25.60;98.10;;;;;;5009420;28;20532;-64
2022/07/05 05:48:10;;;;;;;0.30;0.30;;;25.30;97.80;;;;;;5017122;28;20433;-64
2022/07/05 05:50:43;;;;;;;0.50;0.50;;;25.20;97.90;;;;;;5018196;28;20464;-64
2022/07/05 05:53:10;;;;;;;0.30;0.30;;;25.30;97.20;;;;;;5010109;28;20471;-64
2022/07/05 05:55:37;;;;;;;0.25;0.25;;;25.10;97.20;;;;;;5008853;28;20550;-64
2022/07/05 05:58:26;;;;;;;0.27;0.27;;;25.30;97.30;;;;;;5009867;28;20526;-64
2022/07/05 06:00:53;;;;;;;0.30;0.30;;;26.00;97.20;;;;;;4994265;28;20465;-65
2022/07/05 06:03:22;;;;;;;0.30;0.30;;;26.60;96.30;;;;;;5004645;28;20515;-65
2022/07/05 06:05:49;;;;;;;0.30;0.30;;;27.20;95.70;;;;;;5008711;28;20437;-65
2022/07/05 06:08:19;;;;;;;0.20;0.20;;;27.60;94.90;;;;;;5003966;28;20436;-65
2022/07/05 06:10:49;;;;;;;0.40;0.40;;;27.80;94.70;;;;;;5009267;28;20519;-65
2022/07/05 06:13:28;;;;;;;0.40;0.40;;;27.90;94.50;;;;;;5006964;28;21102;-65
2022/07/05 06:15:55;;;;;;;0.20;0.20;;;28.10;94.60;;;;;;4996630;28;20436;-66
2022/07/05 06:18:22;;;;;;;0.60;0.60;;;27.90;93.90;;;;;;5009295;28;20440;-65
2022/07/05 06:20:49;;;;;;;0.50;0.50;;;27.80;94.40;;;;;;5007906;28;20440;-65
2022/07/05 06:23:15;;;;;;;0.32;0.32;;;28.10;94.40;;;;;;5008982;28;20455;-65
2022/07/05 06:25:42;;;;;;;0.30;0.30;;;28.30;94.10;;;;;;5008636;28;20463;-65
2022/07/05 06:28:09;;;;;;;0.40;0.40;;;28.90;94.00;;;;;;5009862;28;20444;-65
2022/07/05 06:30:37;;;;;;;0.30;0.30;;;29.10;94.20;;;;;;5008866;28;20432;-65
2022/07/05 06:33:05;;;;;;;0.40;0.40;;;29.30;93.40;;;;;;5000178;28;20439;-65
2022/07/05 06:35:33;;;;;;;0.40;0.40;;;29.40;93.20;;;;;;5008012;28;20436;-65
2022/07/05 06:38:03;;;;;;;0.30;0.30;;;29.50;94.10;;;;;;5009405;28;20467;-65
2022/07/05 06:40:34;;;;;;;0.40;0.40;;;29.60;92.50;;;;;;5004553;28;20466;-65
2022/07/05 06:43:08;;;;;;;0.40;0.40;;;29.60;93.70;;;;;;5002453;28;20439;-65
2022/07/05 06:45:39;;;;;;;0.30;0.30;;;29.60;92.50;;;;;;5005999;28;20428;-64
2022/07/05 06:48:08;;;;;;;0.40;0.40;;;29.60;92.70;;;;;;5009182;28;20440;-65
2022/07/05 06:50:40;;;;;;;0.50;0.40;;;29.70;91.80;;;;;;5008468;28;20487;-65
2022/07/05 06:53:07;;;;;;;0.40;0.40;;;29.70;92.30;;;;;;5008961;28;20432;-65
2022/07/05 06:55:44;;;;;;;0.40;0.40;;;29.80;91.60;;;;;;5003252;28;20483;-66
2022/07/05 06:58:17;;;;;;;0.40;0.40;;;29.90;92.20;;;;;;4995567;28;20532;-65
2022/07/05 07:00:44;;;;;;;0.40;0.40;;;29.30;91.70;;;;;;5005817;28;20425;-65
2022/07/05 07:03:31;;;;;;;0.45;0.45;;;28.90;92.00;;;;;;4992144;28;20419;-65
2022/07/05 07:06:19;;;;;;;0.40;0.40;;;28.70;92.50;;;;;;5006595;28;20417;-64
2022/07/05 07:11:31;;;;;;;0.35;0.35;;;29.20;92.40;;;;;;5009185;28;20900;-66
2022/07/05 07:13:57;;;;;;;0.35;0.35;;;29.80;93.40;;;;;;5008964;28;20439;-64
2022/07/05 07:16:24;;;;;;;0.40;0.40;;;30.20;91.40;;;;;;5009171;28;20440;-65
2022/07/05 07:18:54;;;;;;;0.30;0.30;;;30.30;92.00;;;;;;5007189;28;20433;-65
2022/07/05 07:21:41;;;;;;;0.40;0.40;;;30.20;91.90;;;;;;5004427;28;20515;-65
2022/07/05 07:24:08;;;;;;;0.40;0.40;;;30.40;92.10;;;;;;4995170;28;20776;-65
2022/07/05 07:29:21;;;;;;;0.40;0.40;;;30.10;92.10;;;;;;5001635;28;20828;-65
2022/07/05 07:31:48;;;;;;;0.40;0.40;;;30.40;92.00;;;;;;4997802;28;20467;-65
2022/07/05 07:34:17;;;;;;;0.38;0.38;;;30.50;91.40;;;;;;5008238;28;20440;-66
2022/07/05 07:36:44;;;;;;;0.40;0.40;;;30.40;91.10;;;;;;5008353;28;20523;-65
2022/07/05 07:39:11;;;;;;;0.50;0.50;;;30.30;90.60;;;;;;5003892;28;20432;-66
2022/07/05 07:41:38;;;;;;;0.50;0.50;;;30.10;92.40;;;;;;5007560;28;20471;-65
2022/07/05 07:44:08;;;;;;;0.40;0.40;;;30.50;91.30;;;;;;5006062;28;20523;-64
2022/07/05 07:46:35;;;;;;;0.50;0.47;;;30.40;90.90;;;;;;5007648;28;20436;-65
2022/07/05 07:49:02;;;;;;;0.40;0.40;;;29.90;91.10;;;;;;5021965;28;20432;-65
2022/07/05 07:51:29;;;;;;;0.40;0.40;;;29.00;90.90;;;;;;5009322;28;20441;-64
2022/07/05 07:53:56;;;;;;;0.30;0.30;;;28.70;91.80;;;;;;5007416;28;20436;-64
2022/07/05 07:56:28;;;;;;;0.30;0.30;;;29.10;92.50;;;;;;5007118;28;20436;-64
2022/07/05 07:58:55;;;;;;;0.40;0.40;;;29.90;92.80;;;;;;5007956;28;20466;-65
2022/07/05 08:01:22;;;;;;;0.30;0.30;;;30.70;92.10;;;;;;5008504;28;20534;-65
2022/07/05 08:03:49;;;;;;;0.43;0.43;;;31.00;91.90;;;;;;4994619;28;20434;-66
2022/07/05 08:06:16;;;;;;;0.32;0.32;;;31.60;90.50;;;;;;5003889;28;20489;-66
2022/07/05 08:08:44;;;;;;;0.50;0.40;;;31.20;89.90;;;;;;5008201;28;20518;-65
2022/07/05 08:11:12;;;;;;;0.40;0.40;;;30.40;90.00;;;;;;5022655;28;20514;-66
2022/07/05 08:13:42;;;;;;;0.40;0.40;;;30.40;89.30;;;;;;5006304;28;20441;-65
2022/07/05 08:16:16;;;;;;;0.38;0.38;;;30.40;90.40;;;;;;5008165;28;20482;-64
2022/07/05 08:22:01;;;;;;;0.38;0.38;;;31.20;90.50;;;;;;4966321;28;20440;-64
2022/07/05 08:24:30;;;;;;;0.50;0.50;;;31.00;87.70;;;;;;4964333;28;20522;-66
2022/07/05 08:26:57;;;;;;;0.30;0.30;;;30.90;89.00;;;;;;4950667;28;20465;-65
2022/07/05 08:29:27;;;;;;;0.40;0.40;;;30.60;87.10;;;;;;4964678;28;20663;-65
2022/07/05 08:31:54;;;;;;;0.40;0.40;;;30.40;88.20;;;;;;4965104;28;20913;-66
2022/07/05 08:34:20;;;;;;;0.40;0.40;;;30.40;86.70;;;;;;4969249;28;20472;-64
2022/07/05 08:36:47;;;;;;;0.43;0.43;;;30.20;85.60;;;;;;4969642;28;20700;-67
2022/07/05 08:39:20;;;;;;;0.40;0.40;;;30.40;87.80;;;;;;4968615;28;20512;-68
2022/07/05 08:41:51;;;;;;;0.47;0.47;;;30.90;86.10;;;;;;4970896;28;20435;-66
2022/07/05 08:44:20;;;;;;;0.45;0.45;;;31.00;86.60;;;;;;4968919;28;20436;-67
2022/07/05 08:46:52;;;;;;;0.40;0.40;;;31.00;86.90;;;;;;4968334;28;20464;-65
2022/07/05 08:49:27;;;;;;;0.30;0.30;;;31.00;88.60;;;;;;4969546;28;20467;-65
2022/07/05 08:51:55;;;;;;;0.35;0.35;;;31.00;87.40;;;;;;4973005;28;20440;-65
2022/07/05 08:54:23;;;;;;;0.40;0.40;;;31.10;86.90;;;;;;5007656;28;20442;-66
2022/07/05 08:56:51;;;;;;;0.70;0.70;;;31.30;84.20;;;;;;5001632;28;20433;-68
2022/07/05 08:59:41;;;;;;;0.40;0.40;;;30.70;85.70;;;;;;4998613;28;20439;-65
2022/07/05 09:02:12;;;;;;;0.60;0.40;;;30.50;86.40;;;;;;5011202;28;20440;-64
2022/07/05 09:04:45;;;;;;;0.30;0.30;;;30.50;86.40;;;;;;5010747;28;20433;-66
2022/07/05 09:07:16;;;;;;;0.30;0.30;;;30.90;86.40;;;;;;5009858;28;20424;-67
2022/07/05 09:09:45;;;;;;;0.52;0.30;;;31.10;85.80;;;;;;5024710;28;20455;-65
2022/07/05 09:12:13;;;;;;;0.30;0.30;;;30.70;84.90;;;;;;5004398;28;20435;-65
2022/07/05 09:14:52;;;;;;;0.40;0.40;;;30.10;88.30;;;;;;5008496;28;20787;-64
2022/07/05 09:17:23;;;;;;;0.50;0.50;;;29.70;85.60;;;;;;5026629;28;21062;-63
2022/07/05 09:20:16;;;;;;;0.40;0.40;;;29.00;86.10;;;;;;5009363;28;20432;-64
2022/07/05 09:22:54;;;;;;;0.40;0.40;;;29.80;85.90;;;;;;4997632;28;20436;-63
2022/07/05 09:25:23;;;;;;;0.60;0.50;;;30.40;83.80;;;;;;5011043;28;20439;-65
2022/07/05 09:27:56;;;;;;;0.32;0.32;;;30.90;84.50;;;;;;5009688;28;20798;-66
2022/07/05 09:30:24;;;;;;;0.40;0.40;;;30.60;83.90;;;;;;5009694;28;20900;-65
2022/07/05 09:33:22;;;;;;;0.80;0.40;;;30.50;84.40;;;;;;5008813;28;20526;-66
2022/07/05 09:35:59;;;;;;;0.35;0.35;;;30.60;84.80;;;;;;5008661;28;20432;-64
2022/07/05 09:38:28;;;;;;;0.30;0.30;;;29.90;85.10;;;;;;5007458;28;20784;-63
2022/07/05 09:40:57;;;;;;;0.30;0.30;;;30.30;86.10;;;;;;5004055;28;20430;-63
2022/07/05 09:43:28;;;;;;;0.30;0.30;;;30.50;84.20;;;;;;5010560;28;20429;-64
2022/07/05 09:45:59;;;;;;;0.30;0.30;;;31.00;83.70;;;;;;5009269;28;20519;-66
2022/07/05 09:48:34;;;;;;;0.30;0.30;;;30.50;83.70;;;;;;5010704;28;20436;-67
2022/07/05 09:51:13;;;;;;;0.50;0.50;;;29.60;84.80;;;;;;5009089;28;20434;-65
2022/07/05 09:54:01;;;;;;;0.30;0.30;;;29.10;85.70;;;;;;5010445;28;20420;-65
2022/07/05 09:56:47;;;;;;;0.45;0.45;;;28.80;86.70;;;;;;5007697;28;20432;-64
2022/07/05 09:59:19;;;;;;;0.30;0.30;;;29.10;87.20;;;;;;5010691;28;20499;-64
2022/07/05 10:01:48;;;;;;;0.30;0.30;;;29.30;84.60;;;;;;5002201;28;20489;-64
2022/07/05 10:04:15;;;;;;;0.40;0.40;;;29.90;85.00;;;;;;5010121;28;20432;-63
2022/07/05 10:06:45;;;;;;;0.40;0.40;;;30.50;87.10;;;;;;5008089;28;20424;-64
2022/07/05 10:09:14;;;;;;;0.30;0.30;;;30.70;84.50;;;;;;5005488;28;20440;-65
2022/07/05 10:11:43;;;;;;;0.32;0.32;;;31.10;86.60;;;;;;5008494;28;20487;-64
2022/07/05 10:14:14;;;;;;;0.40;0.40;;;31.40;83.60;;;;;;5009734;28;20440;-65
2022/07/05 10:16:45;;;;;;;0.30;0.30;;;31.20;82.20;;;;;;5006410;28;20483;-63
2022/07/05 10:19:17;;;;;;;0.30;0.30;;;29.90;83.00;;;;;;5025373;28;20432;-62
2022/07/05 10:21:45;;;;;;;0.38;0.38;;;30.00;83.60;;;;;;5025068;28;20443;-64
2022/07/05 10:24:36;;;;;;;0.30;0.30;;;30.30;84.20;;;;;;4998557;28;20428;-63
2022/07/05 10:27:06;;;;;;;0.30;0.30;;;30.90;84.50;;;;;;5002074;28;20432;-65
2022/07/05 10:29:34;;;;;;;0.30;0.30;;;31.30;83.00;;;;;;5008239;28;20523;-67
2022/07/05 10:32:02;;;;;;;0.40;0.40;;;31.10;82.40;;;;;;5009373;28;21013;-67
2022/07/05 10:34:32;;;;;;;0.20;0.20;;;31.00;81.80;;;;;;5009366;28;20463;-67
2022/07/05 10:37:21;;;;;;;0.40;0.40;;;31.10;82.50;;;;;;5002559;28;20412;-64
2022/07/05 10:39:50;;;;;;;0.30;0.30;;;30.90;81.10;;;;;;5008292;28;21235;-63
2022/07/05 10:42:19;;;;;;;0.30;0.30;;;30.60;81.00;;;;;;5009544;28;20456;-63
2022/07/05 10:44:48;;;;;;;0.30;0.30;;;30.60;81.70;;;;;;5009094;28;20525;-64
2022/07/05 10:47:15;;;;;;;0.30;0.30;;;31.00;79.70;;;;;;5009087;28;20432;-66
2022/07/05 10:49:42;;;;;;;0.30;0.30;;;30.50;78.10;;;;;;5008123;28;20428;-65
2022/07/05 10:52:25;;;;;;;0.30;0.30;;;30.00;79.00;;;;;;5007933;28;20432;-65
2022/07/05 10:55:17;;;;;;;0.32;0.32;;;30.00;78.60;;;;;;5003804;28;20464;-65
2022/07/05 10:57:44;;;;;;;0.30;0.30;;;30.00;80.30;;;;;;5004304;28;20521;-65
2022/07/05 11:00:12;;;;;;;0.20;0.20;;;30.50;82.10;;;;;;4992876;28;20436;-66
2022/07/05 11:02:41;;;;;;;0.50;0.30;;;30.90;79.50;;;;;;5007644;28;20945;-67
2022/07/05 11:05:16;;;;;;;0.30;0.30;;;31.10;77.80;;;;;;5008816;28;20447;-67
2022/07/05 11:08:00;;;;;;;0.40;0.37;;;31.10;78.20;;;;;;5002825;28;20456;-64
2022/07/05 11:10:27;;;;;;;0.38;0.38;;;30.80;78.00;;;;;;5008873;28;20468;-65
2022/07/05 11:12:53;;;;;;;0.30;0.30;;;31.00;78.70;;;;;;5006754;28;20527;-65
2022/07/05 11:15:20;;;;;;;0.23;0.23;;;31.00;77.20;;;;;;5008886;28;20448;-65
2022/07/05 11:17:47;;;;;;;0.30;0.30;;;31.00;76.90;;;;;;5021717;28;20519;-63
2022/07/05 11:20:26;;;;;;;0.47;0.47;;;30.70;77.50;;;;;;5008692;28;20457;-66
2022/07/05 11:23:08;;;;;;;0.30;0.30;;;30.40;77.50;;;;;;5006153;28;20475;-66
2022/07/05 11:25:38;;;;;;;0.40;0.40;;;30.60;77.90;;;;;;5000569;28;20553;-67
2022/07/05 11:28:08;;;;;;;0.30;0.30;;;30.80;77.30;;;;;;5006173;28;20432;-66
2022/07/05 11:30:58;;;;;;;0.30;0.30;;;30.80;77.60;;;;;;4996685;28;20498;-65
2022/07/05 11:33:31;;;;;;;0.30;0.30;;;31.00;80.50;;;;;;5006418;28;20432;-68
2022/07/05 11:35:58;;;;;;;0.30;0.30;;;31.20;77.60;;;;;;5006839;28;20531;-66
2022/07/05 11:38:26;;;;;;;0.60;0.40;;;31.10;78.40;;;;;;5009787;28;20516;-65
2022/07/05 11:41:15;;;;;;;0.50;0.30;;;31.20;79.00;;;;;;5008789;28;20440;-64
2022/07/05 11:43:42;;;;;;;0.30;0.30;;;31.30;77.80;;;;;;5007017;28;20490;-66
2022/07/05 11:46:10;;;;;;;0.30;0.30;;;31.50;79.20;;;;;;5006592;28;20433;-67
2022/07/05 11:48:57;;;;;;;0.25;0.25;;;31.80;77.90;;;;;;5008507;28;20437;-68
2022/07/05 11:51:31;;;;;;;0.40;0.40;;;31.50;77.80;;;;;;5008018;28;20433;-65
2022/07/05 11:53:58;;;;;;;0.40;0.40;;;32.00;78.10;;;;;;5021188;28;20482;-64
2022/07/05 11:56:44;;;;;;;0.40;0.40;;;32.30;79.40;;;;;;5006558;28;20432;-63
2022/07/05 11:59:21;;;;;;;0.35;0.35;;;32.50;78.90;;;;;;5007375;28;20435;-64
2022/07/05 12:01:48;;;;;;;0.30;0.30;;;32.70;77.50;;;;;;5006542;28;20483;-65
2022/07/05 12:04:26;;;;;;;0.40;0.40;;;32.30;76.90;;;;;;4993998;28;20437;-63
2022/07/05 12:06:54;;;;;;;0.40;0.40;;;31.90;77.70;;;;;;5010001;28;20443;-64
2022/07/05 12:15:17;;;;;;;0.30;0.30;;;30.50;79.70;;;;;;5009874;28;20436;-63
2022/07/05 12:17:46;;;;;;;0.30;0.30;;;30.90;77.30;;;;;;5009341;28;20432;-64
2022/07/05 12:20:19;;;;;;;0.30;0.30;;;30.70;78.50;;;;;;5012465;28;21162;-67
2022/07/05 12:22:46;;;;;;;0.40;0.40;;;30.50;79.00;;;;;;5011685;28;20463;-65
2022/07/05 12:25:21;;;;;;;0.40;0.40;;;30.20;78.40;;;;;;5013249;28;20447;-63
2022/07/05 12:27:53;;;;;;;0.20;0.20;;;30.00;79.40;;;;;;5028802;28;20512;-63
2022/07/05 12:30:20;;;;;;;0.30;0.30;;;29.40;79.40;;;;;;5013245;28;20432;-63
2022/07/05 12:33:00;;;;;;;0.40;0.40;;;29.60;81.20;;;;;;5013431;28;20424;-63
2022/07/05 12:35:37;;;;;;;0.47;0.47;;;30.20;80.90;;;;;;4995410;28;20442;-64
2022/07/05 12:38:16;;;;;;;0.40;0.40;;;31.00;81.80;;;;;;5008287;28;20523;-63
2022/07/05 12:40:45;;;;;;;0.30;0.30;;;31.60;78.60;;;;;;5025384;28;20866;-65
2022/07/05 12:43:19;;;;;;;0.40;0.40;;;31.80;80.40;;;;;;5011562;28;20771;-64
2022/07/05 12:46:06;;;;;;;0.30;0.30;;;32.10;78.70;;;;;;5027945;28;20436;-64
2022/07/05 12:48:38;;;;;;;0.32;0.32;;;31.70;79.60;;;;;;5012956;28;20473;-68
2022/07/05 12:51:07;;;;;;;0.40;0.40;;;31.90;77.60;;;;;;5013118;28;20424;-63
2022/07/05 12:59:43;;;;;;;0.35;0.35;;;32.20;77.70;;;;;;5000291;28;20427;-65
2022/07/05 13:02:13;;;;;;;0.28;0.28;;;32.60;77.60;;;;;;5012507;28;20436;-64
2022/07/05 13:04:53;;;;;;;0.40;0.40;;;32.20;76.30;;;;;;5012308;28;20482;-63
2022/07/05 13:07:26;;;;;;;0.30;0.30;;;32.00;76.90;;;;;;5008002;28;20424;-68
2022/07/05 13:10:17;;;;;;;0.30;0.30;;;31.80;76.70;;;;;;5009709;28;21006;-67
2022/07/05 13:12:44;;;;;;;0.20;0.20;;;31.20;77.40;;;;;;5018572;28;20450;-63
2022/07/05 13:15:12;;;;;;;0.32;0.32;;;31.10;77.30;;;;;;5000344;28;20507;-66
2022/07/05 13:17:39;;;;;;;0.30;0.30;;;31.20;77.80;;;;;;5012992;28;20507;-66
2022/07/05 13:20:12;;;;;;;0.40;0.40;;;31.50;75.70;;;;;;5027718;28;20487;-63
2022/07/05 13:22:39;;;;;;;0.30;0.30;;;31.60;74.90;;;;;;5012385;28;20436;-64